sensor_id;sensor_type;location;lat;lon;timestamp;pressure;altitude;pressure_sealevel;temperature;humidity
70781;BME280;59514;48.810;2.134;2023-04-19T00:00:09;100656.44;;;10.67;84.17
70781;BME280;59514;48.810;2.134;2023-04-19T00:02:35;100658.34;;;10.60;83.89
70781;BME280;59514;48.810;2.134;2023-04-19T00:05:00;100659.66;;;10.51;84.97
70781;BME280;59514;48.810;2.134;2023-04-19T00:07:26;100654.53;;;10.43;84.99
70781;BME280;59514;48.810;2.134;2023-04-19T00:09:52;100656.44;;;10.36;84.76
70781;BME280;59514;48.810;2.134;2023-04-19T00:12:17;100656.50;;;10.29;85.24
70781;BME280;59514;48.810;2.134;2023-04-19T00:14:43;100663.13;;;10.27;85.10
70781;BME280;59514;48.810;2.134;2023-04-19T00:17:08;100655.69;;;10.22;85.62
70781;BME280;59514;48.810;2.134;2023-04-19T00:19:35;100653.69;;;10.18;85.73
70781;BME280;59514;48.810;2.134;2023-04-19T00:22:01;100651.63;;;10.13;85.88
70781;BME280;59514;48.810;2.134;2023-04-19T00:24:26;100651.84;;;10.12;86.48
70781;BME280;59514;48.810;2.134;2023-04-19T00:26:51;100656.16;;;10.13;85.09
70781;BME280;59514;48.810;2.134;2023-04-19T00:29:17;100650.59;;;10.14;85.37
70781;BME280;59514;48.810;2.134;2023-04-19T00:31:42;100653.50;;;10.13;85.90
70781;BME280;59514;48.810;2.134;2023-04-19T00:34:07;100646.50;;;10.12;86.75
70781;BME280;59514;48.810;2.134;2023-04-19T00:36:33;100647.09;;;10.14;86.55
70781;BME280;59514;48.810;2.134;2023-04-19T00:38:58;100652.47;;;10.14;87.07
70781;BME280;59514;48.810;2.134;2023-04-19T00:41:23;100649.56;;;10.15;86.47
70781;BME280;59514;48.810;2.134;2023-04-19T00:43:49;100648.31;;;10.18;84.90
70781;BME280;59514;48.810;2.134;2023-04-19T00:46:14;100648.31;;;10.18;85.51
70781;BME280;59514;48.810;2.134;2023-04-19T00:48:40;100641.28;;;10.17;86.68
70781;BME280;59514;48.810;2.134;2023-04-19T00:51:05;100642.94;;;10.18;84.94
70781;BME280;59514;48.810;2.134;2023-04-19T00:53:31;100644.56;;;10.19;85.15
70781;BME280;59514;48.810;2.134;2023-04-19T00:55:59;100643.75;;;10.18;85.34
70781;BME280;59514;48.810;2.134;2023-04-19T00:58:27;100637.63;;;10.11;85.99
70781;BME280;59514;48.810;2.134;2023-04-19T01:00:54;100642.16;;;10.11;86.19
70781;BME280;59514;48.810;2.134;2023-04-19T01:03:19;100641.75;;;10.14;84.91
70781;BME280;59514;48.810;2.134;2023-04-19T01:05:44;100639.47;;;10.11;85.30
70781;BME280;59514;48.810;2.134;2023-04-19T01:08:10;100630.59;;;10.10;85.61
70781;BME280;59514;48.810;2.134;2023-04-19T01:10:35;100629.78;;;10.10;85.27
70781;BME280;59514;48.810;2.134;2023-04-19T01:13:00;100630.78;;;10.09;84.92
70781;BME280;59514;48.810;2.134;2023-04-19T01:15:26;100638.81;;;10.09;85.38
70781;BME280;59514;48.810;2.134;2023-04-19T01:17:51;100628.53;;;10.06;85.58
70781;BME280;59514;48.810;2.134;2023-04-19T01:20:16;100623.59;;;10.03;86.09
70781;BME280;59514;48.810;2.134;2023-04-19T01:25:36;100620.75;;;9.98;85.42
70781;BME280;59514;48.810;2.134;2023-04-19T01:28:01;100622.00;;;9.95;85.79
70781;BME280;59514;48.810;2.134;2023-04-19T01:30:27;100617.88;;;9.93;85.76
70781;BME280;59514;48.810;2.134;2023-04-19T01:32:52;100623.00;;;9.94;85.30
70781;BME280;59514;48.810;2.134;2023-04-19T01:35:17;100621.16;;;9.95;85.80
70781;BME280;59514;48.810;2.134;2023-04-19T01:37:43;100621.16;;;9.95;85.60
70781;BME280;59514;48.810;2.134;2023-04-19T01:40:08;100624.66;;;9.95;85.42
70781;BME280;59514;48.810;2.134;2023-04-19T01:42:34;100613.72;;;9.97;84.84
70781;BME280;59514;48.810;2.134;2023-04-19T01:44:59;100620.75;;;9.98;84.56
70781;BME280;59514;48.810;2.134;2023-04-19T01:47:24;100611.66;;;9.99;84.02
70781;BME280;59514;48.810;2.134;2023-04-19T01:49:50;100611.66;;;9.99;84.54
70781;BME280;59514;48.810;2.134;2023-04-19T01:52:15;100620.13;;;9.96;84.49
70781;BME280;59514;48.810;2.134;2023-04-19T01:54:40;100618.91;;;9.92;84.18
70781;BME280;59514;48.810;2.134;2023-04-19T01:57:06;100613.97;;;9.89;85.62
70781;BME280;59514;48.810;2.134;2023-04-19T01:59:31;100616.66;;;9.89;84.88
70781;BME280;59514;48.810;2.134;2023-04-19T02:01:56;100617.09;;;9.86;85.33
70781;BME280;59514;48.810;2.134;2023-04-19T02:04:22;100612.97;;;9.83;85.31
70781;BME280;59514;48.810;2.134;2023-04-19T02:06:47;100612.59;;;9.80;86.23
70781;BME280;59514;48.810;2.134;2023-04-19T02:09:12;100612.19;;;9.76;85.43
70781;BME280;59514;48.810;2.134;2023-04-19T02:11:37;100607.84;;;9.75;86.11
70781;BME280;59514;48.810;2.134;2023-04-19T02:14:03;100608.28;;;9.72;86.48
70781;BME280;59514;48.810;2.134;2023-04-19T02:16:28;100604.41;;;9.68;86.70
70781;BME280;59514;48.810;2.134;2023-04-19T02:18:54;100603.56;;;9.68;86.05
70781;BME280;59514;48.810;2.134;2023-04-19T02:21:19;100607.72;;;9.64;86.22
70781;BME280;59514;48.810;2.134;2023-04-19T02:23:44;100613.47;;;9.61;86.64
70781;BME280;59514;48.810;2.134;2023-04-19T02:26:10;100612.88;;;9.58;86.42
70781;BME280;59514;48.810;2.134;2023-04-19T02:28:35;100614.94;;;9.56;87.25
70781;BME280;59514;48.810;2.134;2023-04-19T02:31:05;100610.63;;;9.55;86.10
70781;BME280;59514;48.810;2.134;2023-04-19T02:33:31;100614.31;;;9.54;87.29
70781;BME280;59514;48.810;2.134;2023-04-19T02:35:56;100609.41;;;9.51;86.67
70781;BME280;59514;48.810;2.134;2023-04-19T02:38:22;100611.47;;;9.49;86.66
70781;BME280;59514;48.810;2.134;2023-04-19T02:40:47;100617.25;;;9.46;86.98
70781;BME280;59514;48.810;2.134;2023-04-19T02:43:13;100612.94;;;9.45;87.67
70781;BME280;59514;48.810;2.134;2023-04-19T02:45:38;100613.38;;;9.42;86.50
70781;BME280;59514;48.810;2.134;2023-04-19T02:48:03;100609.03;;;9.41;87.01
70781;BME280;59514;48.810;2.134;2023-04-19T02:50:29;100608.63;;;9.38;87.06
70781;BME280;59514;48.810;2.134;2023-04-19T02:52:56;100609.88;;;9.35;87.71
70781;BME280;59514;48.810;2.134;2023-04-19T02:55:22;100604.94;;;9.32;88.41
70781;BME280;59514;48.810;2.134;2023-04-19T02:57:47;100608.88;;;9.30;87.64
70781;BME280;59514;48.810;2.134;2023-04-19T03:00:12;100614.63;;;9.27;87.62
70781;BME280;59514;48.810;2.134;2023-04-19T03:02:40;100613.22;;;9.24;87.57
70781;BME280;59514;48.810;2.134;2023-04-19T03:05:05;100610.94;;;9.21;87.78
70781;BME280;59514;48.810;2.134;2023-04-19T03:07:30;100612.38;;;9.17;87.85
70781;BME280;59514;48.810;2.134;2023-04-19T03:09:56;100609.31;;;9.20;87.72
70781;BME280;59514;48.810;2.134;2023-04-19T03:12:21;100609.50;;;9.19;88.11
70781;BME280;59514;48.810;2.134;2023-04-19T03:14:46;100605.19;;;9.18;88.72
70781;BME280;59514;48.810;2.134;2023-04-19T03:17:13;100606.19;;;9.17;88.17
70781;BME280;59514;48.810;2.134;2023-04-19T03:19:38;100613.63;;;9.15;88.51
70781;BME280;59514;48.810;2.134;2023-04-19T03:22:03;100607.47;;;9.14;88.24
70781;BME280;59514;48.810;2.134;2023-04-19T03:24:29;100609.09;;;9.15;88.37
70781;BME280;59514;48.810;2.134;2023-04-19T03:26:55;100610.94;;;9.15;87.51
70781;BME280;59514;48.810;2.134;2023-04-19T03:29:21;100611.78;;;9.15;88.35
70781;BME280;59514;48.810;2.134;2023-04-19T03:31:46;100608.47;;;9.13;88.68
70781;BME280;59514;48.810;2.134;2023-04-19T03:34:12;100606.25;;;9.10;87.98
70781;BME280;59514;48.810;2.134;2023-04-19T03:36:38;100602.13;;;9.08;88.02
70781;BME280;59514;48.810;2.134;2023-04-19T03:39:03;100599.22;;;9.09;89.15
70781;BME280;59514;48.810;2.134;2023-04-19T03:41:29;100598.38;;;9.09;88.04
70781;BME280;59514;48.810;2.134;2023-04-19T03:43:54;100588.50;;;9.09;88.92
70781;BME280;59514;48.810;2.134;2023-04-19T03:46:21;100594.91;;;9.08;87.77
70781;BME280;59514;48.810;2.134;2023-04-19T03:48:47;100596.97;;;9.06;87.84
70781;BME280;59514;48.810;2.134;2023-04-19T03:51:12;100597.38;;;9.03;88.41
70781;BME280;59514;48.810;2.134;2023-04-19T03:53:38;100591.41;;;9.01;87.89
70781;BME280;59514;48.810;2.134;2023-04-19T03:56:04;100596.16;;;8.99;89.08
70781;BME280;59514;48.810;2.134;2023-04-19T03:58:29;100589.78;;;9.00;88.51
70781;BME280;59514;48.810;2.134;2023-04-19T04:00:54;100593.91;;;8.96;88.80
70781;BME280;59514;48.810;2.134;2023-04-19T04:03:20;100603.78;;;8.96;88.84
70781;BME280;59514;48.810;2.134;2023-04-19T04:05:45;100589.56;;;8.95;88.86
70781;BME280;59514;48.810;2.134;2023-04-19T04:08:10;100586.28;;;8.93;89.33
70781;BME280;59514;48.810;2.134;2023-04-19T04:10:37;100593.28;;;8.88;89.12
70781;BME280;59514;48.810;2.134;2023-04-19T04:13:03;100594.53;;;8.85;89.28
70781;BME280;59514;48.810;2.134;2023-04-19T04:15:28;100595.56;;;8.84;90.43
70781;BME280;59514;48.810;2.134;2023-04-19T04:17:53;100588.56;;;8.83;89.85
70781;BME280;59514;48.810;2.134;2023-04-19T04:20:19;100592.50;;;8.81;90.16
70781;BME280;59514;48.810;2.134;2023-04-19T04:22:44;100593.94;;;8.77;90.16
70781;BME280;59514;48.810;2.134;2023-04-19T04:25:13;100598.84;;;8.73;90.81
70781;BME280;59514;48.810;2.134;2023-04-19T04:27:40;100596.81;;;8.68;90.56
70781;BME280;59514;48.810;2.134;2023-04-19T04:30:07;100595.16;;;8.67;91.59
70781;BME280;59514;48.810;2.134;2023-04-19T04:32:33;100589.41;;;8.64;91.09
70781;BME280;59514;48.810;2.134;2023-04-19T04:35:03;100600.31;;;8.62;92.09
70781;BME280;59514;48.810;2.134;2023-04-19T04:37:31;100606.28;;;8.58;91.78
70781;BME280;59514;48.810;2.134;2023-04-19T04:39:58;100597.84;;;8.54;92.23
70781;BME280;59514;48.810;2.134;2023-04-19T04:42:23;100596.41;;;8.52;91.96
70781;BME280;59514;48.810;2.134;2023-04-19T04:44:49;100605.06;;;8.54;92.46
70781;BME280;59514;48.810;2.134;2023-04-19T04:47:15;100602.97;;;8.49;93.52
70781;BME280;59514;48.810;2.134;2023-04-19T04:49:41;100616.16;;;8.44;92.70
70781;BME280;59514;48.810;2.134;2023-04-19T04:52:06;100606.69;;;8.42;93.93
70781;BME280;59514;48.810;2.134;2023-04-19T04:54:32;100614.09;;;8.40;93.41
70781;BME280;59514;48.810;2.134;2023-04-19T04:56:58;100619.66;;;8.38;92.59
70781;BME280;59514;48.810;2.134;2023-04-19T04:59:25;100610.59;;;8.39;93.50
70781;BME280;59514;48.810;2.134;2023-04-19T05:01:50;100616.16;;;8.38;94.00
70781;BME280;59514;48.810;2.134;2023-04-19T05:04:16;100623.97;;;8.33;92.19
70781;BME280;59514;48.810;2.134;2023-04-19T05:06:42;100622.31;;;8.32;94.79
70781;BME280;59514;48.810;2.134;2023-04-19T05:09:08;100619.25;;;8.28;93.31
70781;BME280;59514;48.810;2.134;2023-04-19T05:11:34;100619.03;;;8.30;93.31
70781;BME280;59514;48.810;2.134;2023-04-19T05:14:00;100627.25;;;8.28;92.82
70781;BME280;59514;48.810;2.134;2023-04-19T05:16:25;100627.25;;;8.28;93.41
70781;BME280;59514;48.810;2.134;2023-04-19T05:18:51;100618.19;;;8.29;93.57
70781;BME280;59514;48.810;2.134;2023-04-19T05:21:16;100616.56;;;8.28;94.22
70781;BME280;59514;48.810;2.134;2023-04-19T05:23:41;100623.38;;;8.31;93.37
70781;BME280;59514;48.810;2.134;2023-04-19T05:26:07;100633.44;;;8.29;93.37
70781;BME280;59514;48.810;2.134;2023-04-19T05:28:32;100629.09;;;8.28;94.93
70781;BME280;59514;48.810;2.134;2023-04-19T05:30:57;100631.78;;;8.28;93.82
70781;BME280;59514;48.810;2.134;2023-04-19T05:33:23;100635.06;;;8.30;94.75
70781;BME280;59514;48.810;2.134;2023-04-19T05:35:48;100632.19;;;8.31;94.16
70781;BME280;59514;48.810;2.134;2023-04-19T05:38:13;100627.28;;;8.35;94.45
70781;BME280;59514;48.810;2.134;2023-04-19T05:40:38;100624.41;;;8.36;94.80
70781;BME280;59514;48.810;2.134;2023-04-19T05:43:04;100638.19;;;8.40;94.94
70781;BME280;59514;48.810;2.134;2023-04-19T05:45:30;100631.81;;;8.41;94.44
70781;BME280;59514;48.810;2.134;2023-04-19T05:47:55;100639.41;;;8.44;93.41
70781;BME280;59514;48.810;2.134;2023-04-19T05:50:20;100640.03;;;8.46;95.04
70781;BME280;59514;48.810;2.134;2023-04-19T05:52:46;100646.63;;;8.50;93.56
70781;BME280;59514;48.810;2.134;2023-04-19T05:55:11;100643.34;;;8.67;95.27
70781;BME280;59514;48.810;2.134;2023-04-19T05:57:36;100639.03;;;8.86;91.91
70781;BME280;59514;48.810;2.134;2023-04-19T06:00:03;100640.22;;;9.03;90.37
70781;BME280;59514;48.810;2.134;2023-04-19T06:02:29;100649.53;;;8.94;91.14
70781;BME280;59514;48.810;2.134;2023-04-19T06:04:54;100648.91;;;8.92;92.17
70781;BME280;59514;48.810;2.134;2023-04-19T06:07:22;100653.22;;;9.06;91.22
70781;BME280;59514;48.810;2.134;2023-04-19T06:09:47;100649.28;;;9.09;90.76
70781;BME280;59514;48.810;2.134;2023-04-19T06:12:12;100648.88;;;9.12;90.69
70781;BME280;59514;48.810;2.134;2023-04-19T06:14:38;100650.31;;;9.14;91.06
70781;BME280;59514;48.810;2.134;2023-04-19T06:17:03;100659.38;;;9.13;90.84
70781;BME280;59514;48.810;2.134;2023-04-19T06:19:28;100657.31;;;9.15;90.08
70781;BME280;59514;48.810;2.134;2023-04-19T06:21:54;100659.16;;;9.21;90.92
70781;BME280;59514;48.810;2.134;2023-04-19T06:24:19;100658.94;;;9.23;90.56
70781;BME280;59514;48.810;2.134;2023-04-19T06:26:45;100662.66;;;9.28;90.18
70781;BME280;59514;48.810;2.134;2023-04-19T06:29:11;100656.03;;;9.37;90.07
70781;BME280;59514;48.810;2.134;2023-04-19T06:31:37;100651.06;;;9.41;89.26
70781;BME280;59514;48.810;2.134;2023-04-19T06:34:02;100659.09;;;9.47;89.78
70781;BME280;59514;48.810;2.134;2023-04-19T06:36:27;100659.72;;;9.49;89.25
70781;BME280;59514;48.810;2.134;2023-04-19T06:38:53;100658.25;;;9.53;88.08
70781;BME280;59514;48.810;2.134;2023-04-19T06:41:18;100660.31;;;9.58;87.95
70781;BME280;59514;48.810;2.134;2023-04-19T06:43:44;100666.25;;;9.67;87.74
70781;BME280;59514;48.810;2.134;2023-04-19T06:46:12;100665.41;;;9.73;87.57
70781;BME280;59514;48.810;2.134;2023-04-19T06:48:38;100662.91;;;9.78;87.55
70781;BME280;59514;48.810;2.134;2023-04-19T06:51:03;100666.97;;;9.93;86.15
70781;BME280;59514;48.810;2.134;2023-04-19T06:53:29;100672.72;;;9.97;86.17
70781;BME280;59514;48.810;2.134;2023-04-19T06:56:01;100664.03;;;10.01;85.48
70781;BME280;59514;48.810;2.134;2023-04-19T06:58:28;100659.28;;;10.03;85.83
70781;BME280;59514;48.810;2.134;2023-04-19T07:00:54;100660.28;;;10.09;86.05
70781;BME280;59514;48.810;2.134;2023-04-19T07:03:20;100663.63;;;10.11;85.26
70781;BME280;59514;48.810;2.134;2023-04-19T07:05:46;100660.50;;;10.14;84.04
70781;BME280;59514;48.810;2.134;2023-04-19T07:08:11;100660.69;;;10.19;83.13
70781;BME280;59514;48.810;2.134;2023-04-19T07:10:36;100657.75;;;10.27;83.86
70781;BME280;59514;48.810;2.134;2023-04-19T07:13:01;100660.19;;;10.28;83.94
70781;BME280;59514;48.810;2.134;2023-04-19T07:15:27;100660.16;;;10.35;85.03
70781;BME280;59514;48.810;2.134;2023-04-19T07:17:52;100667.34;;;10.41;83.61
70781;BME280;59514;48.810;2.134;2023-04-19T07:20:18;100667.09;;;10.49;82.61
70781;BME280;59514;48.810;2.134;2023-04-19T07:22:43;100664.56;;;10.54;82.10
70781;BME280;59514;48.810;2.134;2023-04-19T07:25:09;100673.22;;;10.56;82.89
70781;BME280;59514;48.810;2.134;2023-04-19T07:27:34;100683.38;;;10.54;81.50
70781;BME280;59514;48.810;2.134;2023-04-19T07:29:59;100683.78;;;10.58;84.03
70781;BME280;59514;48.810;2.134;2023-04-19T07:32:25;100680.38;;;10.69;82.42
70781;BME280;59514;48.810;2.134;2023-04-19T07:34:50;100686.50;;;10.76;81.47
70781;BME280;59514;48.810;2.134;2023-04-19T07:37:16;100695.72;;;10.86;82.63
70781;BME280;59514;48.810;2.134;2023-04-19T07:39:41;100695.50;;;10.88;81.75
70781;BME280;59514;48.810;2.134;2023-04-19T07:42:06;100686.56;;;10.94;82.72
70781;BME280;59514;48.810;2.134;2023-04-19T07:44:32;100682.22;;;10.99;81.73
70781;BME280;59514;48.810;2.134;2023-04-19T07:46:57;100683.25;;;10.98;80.52
70781;BME280;59514;48.810;2.134;2023-04-19T07:49:22;100678.66;;;11.05;81.59
70781;BME280;59514;48.810;2.134;2023-04-19T07:51:48;100684.78;;;11.12;79.44
70781;BME280;59514;48.810;2.134;2023-04-19T07:54:13;100684.03;;;11.23;80.39
70781;BME280;59514;48.810;2.134;2023-04-19T07:56:40;100683.31;;;11.35;81.47
70781;BME280;59514;48.810;2.134;2023-04-19T07:59:06;100676.69;;;11.37;79.22
70781;BME280;59514;48.810;2.134;2023-04-19T08:01:31;100676.16;;;11.47;79.18
70781;BME280;59514;48.810;2.134;2023-04-19T08:03:56;100679.00;;;11.52;78.60
70781;BME280;59514;48.810;2.134;2023-04-19T08:06:22;100673.56;;;11.58;78.89
70781;BME280;59514;48.810;2.134;2023-04-19T08:08:47;100677.19;;;11.64;78.40
70781;BME280;59514;48.810;2.134;2023-04-19T08:11:13;100676.94;;;11.72;76.47
70781;BME280;59514;48.810;2.134;2023-04-19T08:13:38;100678.50;;;11.79;78.13
70781;BME280;59514;48.810;2.134;2023-04-19T08:16:04;100678.72;;;11.96;78.60
70781;BME280;59514;48.810;2.134;2023-04-19T08:18:30;100675.13;;;12.02;75.66
70781;BME280;59514;48.810;2.134;2023-04-19T08:20:55;100681.22;;;12.09;77.53
70781;BME280;59514;48.810;2.134;2023-04-19T08:23:20;100666.72;;;12.10;74.60
70781;BME280;59514;48.810;2.134;2023-04-19T08:25:46;100672.63;;;12.19;75.98
70781;BME280;59514;48.810;2.134;2023-04-19T08:28:11;100674.19;;;12.26;78.69
70781;BME280;59514;48.810;2.134;2023-04-19T08:30:37;100666.81;;;12.33;78.50
70781;BME280;59514;48.810;2.134;2023-04-19T08:33:02;100671.09;;;12.41;76.33
70781;BME280;59514;48.810;2.134;2023-04-19T08:35:27;100673.78;;;12.41;74.03
70781;BME280;59514;48.810;2.134;2023-04-19T08:37:53;100674.00;;;12.51;76.86
70781;BME280;59514;48.810;2.134;2023-04-19T08:40:18;100684.69;;;12.57;74.43
70781;BME280;59514;48.810;2.134;2023-04-19T08:42:43;100680.59;;;12.55;73.13
70781;BME280;59514;48.810;2.134;2023-04-19T08:45:09;100683.19;;;12.61;75.32
70781;BME280;59514;48.810;2.134;2023-04-19T08:47:38;100680.25;;;12.63;74.93
70781;BME280;59514;48.810;2.134;2023-04-19T08:50:05;100676.53;;;12.75;76.28
70781;BME280;59514;48.810;2.134;2023-04-19T08:52:33;100677.59;;;12.74;74.52
70781;BME280;59514;48.810;2.134;2023-04-19T08:55:03;100676.31;;;12.88;73.24
70781;BME280;59514;48.810;2.134;2023-04-19T08:57:33;100672.25;;;12.97;74.95
70781;BME280;59514;48.810;2.134;2023-04-19T09:00:00;100673.88;;;12.98;72.58
70781;BME280;59514;48.810;2.134;2023-04-19T09:02:25;100687.34;;;12.98;72.69
70781;BME280;59514;48.810;2.134;2023-04-19T09:04:51;100676.84;;;13.09;72.20
70781;BME280;59514;48.810;2.134;2023-04-19T09:07:24;100668.53;;;13.22;71.80
70781;BME280;59514;48.810;2.134;2023-04-19T09:10:15;100667.34;;;13.29;70.01
70781;BME280;59514;48.810;2.134;2023-04-19T09:12:41;100670.28;;;13.28;72.12
70781;BME280;59514;48.810;2.134;2023-04-19T09:15:09;100667.25;;;13.36;73.09
70781;BME280;59514;48.810;2.134;2023-04-19T09:17:35;100677.66;;;13.55;71.40
70781;BME280;59514;48.810;2.134;2023-04-19T09:20:01;100667.75;;;13.72;72.10
70781;BME280;59514;48.810;2.134;2023-04-19T09:22:28;100665.88;;;13.73;70.68
70781;BME280;59514;48.810;2.134;2023-04-19T09:24:54;100667.16;;;13.82;73.88
70781;BME280;59514;48.810;2.134;2023-04-19T09:27:34;100670.31;;;13.91;69.05
70781;BME280;59514;48.810;2.134;2023-04-19T09:30:02;100665.94;;;14.01;73.76
70781;BME280;59514;48.810;2.134;2023-04-19T09:32:28;100680.22;;;14.13;69.18
70781;BME280;59514;48.810;2.134;2023-04-19T09:34:55;100666.78;;;14.18;69.28
70781;BME280;59514;48.810;2.134;2023-04-19T09:37:22;100665.84;;;14.24;66.64
70781;BME280;59514;48.810;2.134;2023-04-19T09:39:48;100664.44;;;14.33;70.90
70781;BME280;59514;48.810;2.134;2023-04-19T09:42:13;100659.88;;;14.50;69.38
70781;BME280;59514;48.810;2.134;2023-04-19T09:44:39;100664.38;;;14.61;71.72
70781;BME280;59514;48.810;2.134;2023-04-19T09:47:23;100661.53;;;14.68;64.73
70781;BME280;59514;48.810;2.134;2023-04-19T09:50:09;100655.28;;;14.67;64.13
70781;BME280;59514;48.810;2.134;2023-04-19T09:52:35;100654.56;;;14.72;66.83
70781;BME280;59514;48.810;2.134;2023-04-19T09:55:02;100661.13;;;14.76;63.60
70781;BME280;59514;48.810;2.134;2023-04-19T09:57:33;100648.59;;;14.87;65.50
70781;BME280;59514;48.810;2.134;2023-04-19T09:59:59;100649.41;;;15.04;65.35
70781;BME280;59514;48.810;2.134;2023-04-19T10:02:29;100645.84;;;15.20;66.75
70781;BME280;59514;48.810;2.134;2023-04-19T10:04:57;100641.69;;;15.29;65.60
70781;BME280;59514;48.810;2.134;2023-04-19T10:07:23;100630.91;;;15.34;63.84
70781;BME280;59514;48.810;2.134;2023-04-19T10:09:50;100636.75;;;15.42;65.72
70781;BME280;59514;48.810;2.134;2023-04-19T10:12:17;100635.75;;;15.32;63.49
70781;BME280;59514;48.810;2.134;2023-04-19T10:14:43;100627.56;;;15.43;62.42
70781;BME280;59514;48.810;2.134;2023-04-19T10:17:08;100624.97;;;15.75;64.40
70781;BME280;59514;48.810;2.134;2023-04-19T10:19:34;100623.84;;;16.14;64.67
70781;BME280;59514;48.810;2.134;2023-04-19T10:22:01;100627.81;;;16.33;65.72
70781;BME280;59514;48.810;2.134;2023-04-19T10:24:29;100622.06;;;16.52;64.73
70781;BME280;59514;48.810;2.134;2023-04-19T10:29:59;100615.59;;;17.36;56.83
70781;BME280;59514;48.810;2.134;2023-04-19T10:32:28;100616.09;;;17.28;54.56
70781;BME280;59514;48.810;2.134;2023-04-19T10:35:00;100619.13;;;17.83;58.98
70781;BME280;59514;48.810;2.134;2023-04-19T10:37:25;100614.25;;;17.85;54.50
70781;BME280;59514;48.810;2.134;2023-04-19T10:39:51;100615.94;;;18.22;61.41
70781;BME280;59514;48.810;2.134;2023-04-19T10:42:16;100605.72;;;18.59;61.12
70781;BME280;59514;48.810;2.134;2023-04-19T10:47:45;100601.63;;;18.76;55.00
70781;BME280;59514;48.810;2.134;2023-04-19T10:50:11;100602.69;;;18.96;65.19
70781;BME280;59514;48.810;2.134;2023-04-19T10:52:36;100599.13;;;19.10;60.06
70781;BME280;59514;48.810;2.134;2023-04-19T10:55:03;100596.38;;;19.15;55.55
70781;BME280;59514;48.810;2.134;2023-04-19T10:58:06;100596.88;;;19.52;50.33
70781;BME280;59514;48.810;2.134;2023-04-19T11:00:32;100590.56;;;19.62;52.74
70781;BME280;59514;48.810;2.134;2023-04-19T11:02:58;100606.09;;;19.61;59.03
70781;BME280;59514;48.810;2.134;2023-04-19T11:05:25;100599.78;;;19.76;55.71
70781;BME280;59514;48.810;2.134;2023-04-19T11:07:50;100595.16;;;19.71;56.93
70781;BME280;59514;48.810;2.134;2023-04-19T11:10:27;100591.81;;;18.80;49.77
70781;BME280;59514;48.810;2.134;2023-04-19T11:12:53;100591.34;;;19.72;54.26
70781;BME280;59514;48.810;2.134;2023-04-19T11:15:21;100586.50;;;19.49;50.94
70781;BME280;59514;48.810;2.134;2023-04-19T11:17:50;100583.00;;;19.44;50.94
70781;BME280;59514;48.810;2.134;2023-04-19T11:20:20;100573.88;;;19.73;50.17
70781;BME280;59514;48.810;2.134;2023-04-19T11:22:47;100562.19;;;20.22;53.90
70781;BME280;59514;48.810;2.134;2023-04-19T11:25:22;100554.38;;;20.44;52.66
70781;BME280;59514;48.810;2.134;2023-04-19T11:27:49;100571.94;;;19.84;49.89
70781;BME280;59514;48.810;2.134;2023-04-19T11:30:20;100566.88;;;20.50;51.73
70781;BME280;59514;48.810;2.134;2023-04-19T11:32:51;100557.50;;;20.61;48.26
70781;BME280;59514;48.810;2.134;2023-04-19T11:35:25;100557.22;;;20.91;47.04
70781;BME280;59514;48.810;2.134;2023-04-19T11:37:51;100554.84;;;20.51;47.34
70781;BME280;59514;48.810;2.134;2023-04-19T11:40:18;100545.16;;;19.96;47.07
70781;BME280;59514;48.810;2.134;2023-04-19T11:42:44;100551.84;;;20.14;52.35
70781;BME280;59514;48.810;2.134;2023-04-19T11:45:10;100542.19;;;20.65;46.25
70781;BME280;59514;48.810;2.134;2023-04-19T11:47:48;100551.06;;;20.47;44.52
70781;BME280;59514;48.810;2.134;2023-04-19T11:50:38;100545.03;;;20.79;43.65
70781;BME280;59514;48.810;2.134;2023-04-19T11:53:19;100551.41;;;21.26;42.36
70781;BME280;59514;48.810;2.134;2023-04-19T11:55:47;100548.53;;;20.84;46.88
70781;BME280;59514;48.810;2.134;2023-04-19T11:58:30;100540.47;;;21.26;44.01
70781;BME280;59514;48.810;2.134;2023-04-19T12:01:13;100541.41;;;20.88;43.48
70781;BME280;59514;48.810;2.134;2023-04-19T12:03:58;100536.38;;;21.48;42.84
70781;BME280;59514;48.810;2.134;2023-04-19T12:06:27;100538.72;;;21.12;45.66
70781;BME280;59514;48.810;2.134;2023-04-19T12:08:54;100522.63;;;20.58;45.98
70781;BME280;59514;48.810;2.134;2023-04-19T12:11:25;100530.69;;;19.96;45.71
70781;BME280;59514;48.810;2.134;2023-04-19T12:14:13;100523.09;;;20.65;44.76
70781;BME280;59514;48.810;2.134;2023-04-19T12:16:39;100520.44;;;20.84;53.64
70781;BME280;59514;48.810;2.134;2023-04-19T12:21:38;100521.63;;;21.49;42.73
70781;BME280;59514;48.810;2.134;2023-04-19T12:24:04;100529.09;;;21.19;45.46
70781;BME280;59514;48.810;2.134;2023-04-19T12:26:29;100522.91;;;20.80;44.25
70781;BME280;59514;48.810;2.134;2023-04-19T12:28:55;100510.16;;;21.47;45.94
70781;BME280;59514;48.810;2.134;2023-04-19T12:31:21;100514.50;;;21.90;42.43
70781;BME280;59514;48.810;2.134;2023-04-19T12:33:47;100517.19;;;21.53;47.36
70781;BME280;59514;48.810;2.134;2023-04-19T12:36:13;100512.38;;;21.87;43.12
70781;BME280;59514;48.810;2.134;2023-04-19T12:38:39;100510.69;;;21.49;44.56
70781;BME280;59514;48.810;2.134;2023-04-19T12:41:04;100509.47;;;21.78;45.61
70781;BME280;59514;48.810;2.134;2023-04-19T12:43:30;100509.28;;;22.25;41.30
70781;BME280;59514;48.810;2.134;2023-04-19T12:45:56;100509.34;;;21.88;50.29
70781;BME280;59514;48.810;2.134;2023-04-19T12:48:22;100515.53;;;22.12;43.80
70781;BME280;59514;48.810;2.134;2023-04-19T12:50:48;100504.81;;;22.80;48.67
70781;BME280;59514;48.810;2.134;2023-04-19T12:53:13;100504.66;;;22.26;39.10
70781;BME280;59514;48.810;2.134;2023-04-19T12:55:38;100494.97;;;21.59;47.02
70781;BME280;59514;48.810;2.134;2023-04-19T12:58:04;100500.44;;;21.78;41.58
70781;BME280;59514;48.810;2.134;2023-04-19T13:00:30;100504.97;;;22.06;49.00
70781;BME280;59514;48.810;2.134;2023-04-19T13:02:55;100495.22;;;22.51;41.60